sensor_id;sensor_type;location;lat;lon;timestamp;temperature;humidity
69626;DHT22;56847;51.984;5.088;2023-03-14T00:02:27;13.30;71.70
69626;DHT22;56847;51.984;5.088;2023-03-14T00:04:55;13.30;71.60
69626;DHT22;56847;51.984;5.088;2023-03-14T00:07:23;13.40;71.30
69626;DHT22;56847;51.984;5.088;2023-03-14T00:09:51;13.40;71.10
69626;DHT22;56847;51.984;5.088;2023-03-14T00:12:18;13.40;70.60
69626;DHT22;56847;51.984;5.088;2023-03-14T00:14:47;13.40;70.20
69626;DHT22;56847;51.984;5.088;2023-03-14T00:17:14;13.40;69.70
69626;DHT22;56847;51.984;5.088;2023-03-14T00:19:41;13.40;69.50
69626;DHT22;56847;51.984;5.088;2023-03-14T00:22:08;13.40;69.40
69626;DHT22;56847;51.984;5.088;2023-03-14T00:24:35;13.40;69.20
69626;DHT22;56847;51.984;5.088;2023-03-14T00:27:02;13.40;69.10
69626;DHT22;56847;51.984;5.088;2023-03-14T00:29:29;13.40;69.20
69626;DHT22;56847;51.984;5.088;2023-03-14T00:31:56;13.40;69.40
69626;DHT22;56847;51.984;5.088;2023-03-14T00:34:23;13.40;69.40
69626;DHT22;56847;51.984;5.088;2023-03-14T00:36:50;13.40;69.20
69626;DHT22;56847;51.984;5.088;2023-03-14T00:39:17;13.40;69.30
69626;DHT22;56847;51.984;5.088;2023-03-14T00:41:44;13.40;69.30
69626;DHT22;56847;51.984;5.088;2023-03-14T00:44:11;13.40;69.10
69626;DHT22;56847;51.984;5.088;2023-03-14T00:46:38;13.30;69.30
69626;DHT22;56847;51.984;5.088;2023-03-14T00:49:06;13.10;70.10
69626;DHT22;56847;51.984;5.088;2023-03-14T00:51:33;12.90;71.10
69626;DHT22;56847;51.984;5.088;2023-03-14T00:54:03;12.90;71.50
69626;DHT22;56847;51.984;5.088;2023-03-14T00:56:30;12.90;71.80
69626;DHT22;56847;51.984;5.088;2023-03-14T00:58:57;12.80;72.00
69626;DHT22;56847;51.984;5.088;2023-03-14T01:01:24;12.80;72.30
69626;DHT22;56847;51.984;5.088;2023-03-14T01:03:53;12.70;73.10
69626;DHT22;56847;51.984;5.088;2023-03-14T01:06:26;12.50;74.20
69626;DHT22;56847;51.984;5.088;2023-03-14T01:08:54;12.30;75.30
69626;DHT22;56847;51.984;5.088;2023-03-14T01:11:26;12.10;76.40
69626;DHT22;56847;51.984;5.088;2023-03-14T01:14:01;11.90;77.60
69626;DHT22;56847;51.984;5.088;2023-03-14T01:16:32;11.90;78.30
69626;DHT22;56847;51.984;5.088;2023-03-14T01:19:01;11.80;79.20
69626;DHT22;56847;51.984;5.088;2023-03-14T01:21:33;11.70;79.70
69626;DHT22;56847;51.984;5.088;2023-03-14T01:24:23;11.70;79.90
69626;DHT22;56847;51.984;5.088;2023-03-14T01:26:51;11.70;80.10
69626;DHT22;56847;51.984;5.088;2023-03-14T01:29:18;11.60;80.40
69626;DHT22;56847;51.984;5.088;2023-03-14T01:31:45;11.60;80.60
69626;DHT22;56847;51.984;5.088;2023-03-14T01:34:12;11.70;80.70
69626;DHT22;56847;51.984;5.088;2023-03-14T01:36:39;11.70;80.50
69626;DHT22;56847;51.984;5.088;2023-03-14T01:39:06;11.70;80.50
69626;DHT22;56847;51.984;5.088;2023-03-14T01:41:34;11.70;80.50
69626;DHT22;56847;51.984;5.088;2023-03-14T01:44:00;11.80;80.40
69626;DHT22;56847;51.984;5.088;2023-03-14T01:46:42;11.80;80.20
69626;DHT22;56847;51.984;5.088;2023-03-14T01:49:22;11.80;80.10
69626;DHT22;56847;51.984;5.088;2023-03-14T01:52:06;11.80;80.20
69626;DHT22;56847;51.984;5.088;2023-03-14T01:55:19;11.70;80.70
69626;DHT22;56847;51.984;5.088;2023-03-14T01:57:39;11.60;81.00
69626;DHT22;56847;51.984;5.088;2023-03-14T02:00:13;11.50;81.40
69626;DHT22;56847;51.984;5.088;2023-03-14T02:02:47;11.60;81.70
69626;DHT22;56847;51.984;5.088;2023-03-14T02:05:23;11.50;81.60
69626;DHT22;56847;51.984;5.088;2023-03-14T02:07:59;11.50;81.80
69626;DHT22;56847;51.984;5.088;2023-03-14T02:10:34;11.50;81.90
69626;DHT22;56847;51.984;5.088;2023-03-14T02:13:04;11.60;81.80
69626;DHT22;56847;51.984;5.088;2023-03-14T02:15:59;11.60;81.70
69626;DHT22;56847;51.984;5.088;2023-03-14T02:18:44;11.60;81.80
69626;DHT22;56847;51.984;5.088;2023-03-14T02:21:53;11.60;81.80
69626;DHT22;56847;51.984;5.088;2023-03-14T02:24:40;11.60;81.80
69626;DHT22;56847;51.984;5.088;2023-03-14T02:27:16;11.70;81.80
69626;DHT22;56847;51.984;5.088;2023-03-14T02:29:51;11.70;81.80
69626;DHT22;56847;51.984;5.088;2023-03-14T02:32:20;11.80;81.60
69626;DHT22;56847;51.984;5.088;2023-03-14T02:34:52;11.80;81.60
69626;DHT22;56847;51.984;5.088;2023-03-14T02:37:24;11.90;81.50
69626;DHT22;56847;51.984;5.088;2023-03-14T02:39:54;11.90;81.40
69626;DHT22;56847;51.984;5.088;2023-03-14T02:42:21;11.90;81.30
69626;DHT22;56847;51.984;5.088;2023-03-14T02:44:54;11.90;81.20
69626;DHT22;56847;51.984;5.088;2023-03-14T02:47:28;11.90;81.30
69626;DHT22;56847;51.984;5.088;2023-03-14T02:50:14;11.90;81.30
69626;DHT22;56847;51.984;5.088;2023-03-14T02:52:42;11.80;81.40
69626;DHT22;56847;51.984;5.088;2023-03-14T02:55:09;11.80;81.40
69626;DHT22;56847;51.984;5.088;2023-03-14T02:57:39;11.80;81.40
69626;DHT22;56847;51.984;5.088;2023-03-14T03:00:07;11.80;81.50
69626;DHT22;56847;51.984;5.088;2023-03-14T03:02:37;11.80;81.50
69626;DHT22;56847;51.984;5.088;2023-03-14T03:05:04;11.90;81.60
69626;DHT22;56847;51.984;5.088;2023-03-14T03:07:32;12.00;81.40
69626;DHT22;56847;51.984;5.088;2023-03-14T03:09:59;12.00;81.40
69626;DHT22;56847;51.984;5.088;2023-03-14T03:12:27;12.00;81.30
69626;DHT22;56847;51.984;5.088;2023-03-14T03:14:54;12.00;81.00
69626;DHT22;56847;51.984;5.088;2023-03-14T03:17:20;12.00;81.10
69626;DHT22;56847;51.984;5.088;2023-03-14T03:19:47;12.00;81.00
69626;DHT22;56847;51.984;5.088;2023-03-14T03:22:14;12.10;81.00
69626;DHT22;56847;51.984;5.088;2023-03-14T03:24:42;12.10;80.80
69626;DHT22;56847;51.984;5.088;2023-03-14T03:27:09;12.10;80.70
69626;DHT22;56847;51.984;5.088;2023-03-14T03:29:39;12.10;80.50
69626;DHT22;56847;51.984;5.088;2023-03-14T03:32:06;12.10;80.70
69626;DHT22;56847;51.984;5.088;2023-03-14T03:34:33;12.10;80.60
69626;DHT22;56847;51.984;5.088;2023-03-14T03:37:01;12.10;80.40
69626;DHT22;56847;51.984;5.088;2023-03-14T03:39:31;12.10;80.40
69626;DHT22;56847;51.984;5.088;2023-03-14T03:41:59;12.10;80.10
69626;DHT22;56847;51.984;5.088;2023-03-14T03:44:26;12.10;80.20
69626;DHT22;56847;51.984;5.088;2023-03-14T03:46:54;12.10;80.10
69626;DHT22;56847;51.984;5.088;2023-03-14T03:49:20;12.20;80.20
69626;DHT22;56847;51.984;5.088;2023-03-14T03:51:47;12.20;79.60
69626;DHT22;56847;51.984;5.088;2023-03-14T03:54:15;12.20;79.60
69626;DHT22;56847;51.984;5.088;2023-03-14T03:56:42;12.20;79.50
69626;DHT22;56847;51.984;5.088;2023-03-14T03:59:08;12.20;79.50
69626;DHT22;56847;51.984;5.088;2023-03-14T04:01:36;12.30;79.30
69626;DHT22;56847;51.984;5.088;2023-03-14T04:04:03;12.30;79.60
69626;DHT22;56847;51.984;5.088;2023-03-14T04:06:30;12.30;79.40
69626;DHT22;56847;51.984;5.088;2023-03-14T04:08:59;12.40;79.00
69626;DHT22;56847;51.984;5.088;2023-03-14T04:11:52;12.40;79.20
69626;DHT22;56847;51.984;5.088;2023-03-14T04:14:19;12.40;78.90
69626;DHT22;56847;51.984;5.088;2023-03-14T04:16:48;12.40;79.20
69626;DHT22;56847;51.984;5.088;2023-03-14T04:19:18;12.40;78.70
69626;DHT22;56847;51.984;5.088;2023-03-14T04:21:46;12.40;78.70
69626;DHT22;56847;51.984;5.088;2023-03-14T04:24:14;12.40;78.80
69626;DHT22;56847;51.984;5.088;2023-03-14T04:26:44;12.40;79.00
69626;DHT22;56847;51.984;5.088;2023-03-14T04:29:11;12.40;78.90
69626;DHT22;56847;51.984;5.088;2023-03-14T04:31:41;12.50;79.10
69626;DHT22;56847;51.984;5.088;2023-03-14T04:34:09;12.50;78.90
69626;DHT22;56847;51.984;5.088;2023-03-14T04:36:42;12.50;78.70
69626;DHT22;56847;51.984;5.088;2023-03-14T04:39:14;12.50;78.70
69626;DHT22;56847;51.984;5.088;2023-03-14T04:41:49;12.50;78.70
69626;DHT22;56847;51.984;5.088;2023-03-14T04:44:16;12.50;78.80
69626;DHT22;56847;51.984;5.088;2023-03-14T04:46:42;12.50;78.90
69626;DHT22;56847;51.984;5.088;2023-03-14T04:49:11;12.50;78.70
69626;DHT22;56847;51.984;5.088;2023-03-14T04:51:38;12.50;78.50
69626;DHT22;56847;51.984;5.088;2023-03-14T04:54:05;12.50;79.00
69626;DHT22;56847;51.984;5.088;2023-03-14T04:56:32;12.50;78.90
69626;DHT22;56847;51.984;5.088;2023-03-14T04:59:04;12.50;78.60
69626;DHT22;56847;51.984;5.088;2023-03-14T05:01:34;12.40;78.90
69626;DHT22;56847;51.984;5.088;2023-03-14T05:04:21;12.30;79.20
69626;DHT22;56847;51.984;5.088;2023-03-14T05:07:20;12.30;79.50
69626;DHT22;56847;51.984;5.088;2023-03-14T05:09:56;12.20;79.70
69626;DHT22;56847;51.984;5.088;2023-03-14T05:12:42;12.10;80.00
69626;DHT22;56847;51.984;5.088;2023-03-14T05:15:27;12.00;80.60
69626;DHT22;56847;51.984;5.088;2023-03-14T05:18:11;11.90;81.00
69626;DHT22;56847;51.984;5.088;2023-03-14T05:21:17;11.90;81.30
69626;DHT22;56847;51.984;5.088;2023-03-14T05:24:03;11.90;81.60
69626;DHT22;56847;51.984;5.088;2023-03-14T05:26:50;11.80;81.80
69626;DHT22;56847;51.984;5.088;2023-03-14T05:29:42;11.80;82.00
69626;DHT22;56847;51.984;5.088;2023-03-14T05:32:27;11.80;82.20
69626;DHT22;56847;51.984;5.088;2023-03-14T05:34:54;11.80;82.30
69626;DHT22;56847;51.984;5.088;2023-03-14T05:37:48;11.70;82.60
69626;DHT22;56847;51.984;5.088;2023-03-14T05:40:40;11.70;82.60
69626;DHT22;56847;51.984;5.088;2023-03-14T05:43:17;11.70;82.80
69626;DHT22;56847;51.984;5.088;2023-03-14T05:46:14;11.70;83.00
69626;DHT22;56847;51.984;5.088;2023-03-14T05:48:58;11.70;83.20
69626;DHT22;56847;51.984;5.088;2023-03-14T05:51:43;11.70;83.40
69626;DHT22;56847;51.984;5.088;2023-03-14T05:54:10;11.60;83.40
69626;DHT22;56847;51.984;5.088;2023-03-14T05:56:53;11.70;83.60
69626;DHT22;56847;51.984;5.088;2023-03-14T05:59:49;11.70;83.80
69626;DHT22;56847;51.984;5.088;2023-03-14T06:02:42;11.70;83.80
69626;DHT22;56847;51.984;5.088;2023-03-14T06:05:18;11.70;84.00
69626;DHT22;56847;51.984;5.088;2023-03-14T06:07:46;11.70;84.00
69626;DHT22;56847;51.984;5.088;2023-03-14T06:10:14;11.70;84.20
69626;DHT22;56847;51.984;5.088;2023-03-14T06:12:41;11.60;84.40
69626;DHT22;56847;51.984;5.088;2023-03-14T06:15:09;11.70;84.50
69626;DHT22;56847;51.984;5.088;2023-03-14T06:17:37;11.70;84.60
69626;DHT22;56847;51.984;5.088;2023-03-14T06:20:09;11.70;84.60
69626;DHT22;56847;51.984;5.088;2023-03-14T06:22:36;11.60;84.70
69626;DHT22;56847;51.984;5.088;2023-03-14T06:25:05;11.50;84.20
69626;DHT22;56847;51.984;5.088;2023-03-14T06:27:33;11.30;83.30
69626;DHT22;56847;51.984;5.088;2023-03-14T06:30:00;11.10;83.30
69626;DHT22;56847;51.984;5.088;2023-03-14T06:32:29;10.90;83.50
69626;DHT22;56847;51.984;5.088;2023-03-14T06:34:59;10.80;83.60
69626;DHT22;56847;51.984;5.088;2023-03-14T06:37:29;10.60;83.50
69626;DHT22;56847;51.984;5.088;2023-03-14T06:39:56;10.60;84.00
69626;DHT22;56847;51.984;5.088;2023-03-14T06:42:44;10.50;84.30
69626;DHT22;56847;51.984;5.088;2023-03-14T06:45:13;10.40;84.50
69626;DHT22;56847;51.984;5.088;2023-03-14T06:47:41;10.40;84.90
69626;DHT22;56847;51.984;5.088;2023-03-14T06:50:10;10.40;84.90
69626;DHT22;56847;51.984;5.088;2023-03-14T06:52:38;10.40;84.90
69626;DHT22;56847;51.984;5.088;2023-03-14T06:55:08;10.30;85.20
69626;DHT22;56847;51.984;5.088;2023-03-14T06:57:36;10.30;85.20
69626;DHT22;56847;51.984;5.088;2023-03-14T07:00:04;10.30;85.30
69626;DHT22;56847;51.984;5.088;2023-03-14T07:02:36;10.20;85.40
69626;DHT22;56847;51.984;5.088;2023-03-14T07:05:19;10.20;85.60
69626;DHT22;56847;51.984;5.088;2023-03-14T07:07:46;10.10;85.90
69626;DHT22;56847;51.984;5.088;2023-03-14T07:10:13;10.20;85.90
69626;DHT22;56847;51.984;5.088;2023-03-14T07:12:43;10.20;85.90
69626;DHT22;56847;51.984;5.088;2023-03-14T07:15:10;10.20;85.80
69626;DHT22;56847;51.984;5.088;2023-03-14T07:18:02;10.10;85.80
69626;DHT22;56847;51.984;5.088;2023-03-14T07:20:30;10.10;85.90
69626;DHT22;56847;51.984;5.088;2023-03-14T07:22:59;10.10;85.90
69626;DHT22;56847;51.984;5.088;2023-03-14T07:25:35;10.10;85.80
69626;DHT22;56847;51.984;5.088;2023-03-14T07:28:02;10.00;85.30
69626;DHT22;56847;51.984;5.088;2023-03-14T07:30:30;10.00;85.30
69626;DHT22;56847;51.984;5.088;2023-03-14T07:32:59;10.00;85.40
69626;DHT22;56847;51.984;5.088;2023-03-14T07:35:28;10.00;85.70
69626;DHT22;56847;51.984;5.088;2023-03-14T07:37:55;10.00;85.20
69626;DHT22;56847;51.984;5.088;2023-03-14T07:40:29;10.00;85.20
69626;DHT22;56847;51.984;5.088;2023-03-14T07:42:56;10.10;85.10
69626;DHT22;56847;51.984;5.088;2023-03-14T07:45:26;10.10;85.00
69626;DHT22;56847;51.984;5.088;2023-03-14T07:47:54;10.10;84.70
69626;DHT22;56847;51.984;5.088;2023-03-14T07:50:25;10.10;84.90
69626;DHT22;56847;51.984;5.088;2023-03-14T07:52:53;10.10;84.60
69626;DHT22;56847;51.984;5.088;2023-03-14T07:55:20;10.10;84.60
69626;DHT22;56847;51.984;5.088;2023-03-14T07:57:47;10.10;84.80
69626;DHT22;56847;51.984;5.088;2023-03-14T08:00:14;10.20;84.80
69626;DHT22;56847;51.984;5.088;2023-03-14T08:02:42;10.20;84.40
69626;DHT22;56847;51.984;5.088;2023-03-14T08:05:09;10.10;83.80
69626;DHT22;56847;51.984;5.088;2023-03-14T08:07:37;10.10;84.30
69626;DHT22;56847;51.984;5.088;2023-03-14T08:10:04;10.20;84.30
69626;DHT22;56847;51.984;5.088;2023-03-14T08:12:31;10.20;84.00
69626;DHT22;56847;51.984;5.088;2023-03-14T08:14:58;10.20;83.40
69626;DHT22;56847;51.984;5.088;2023-03-14T08:17:29;10.20;83.40
69626;DHT22;56847;51.984;5.088;2023-03-14T08:19:56;10.20;83.30
69626;DHT22;56847;51.984;5.088;2023-03-14T08:22:23;10.20;83.20
69626;DHT22;56847;51.984;5.088;2023-03-14T08:24:50;10.20;83.10
69626;DHT22;56847;51.984;5.088;2023-03-14T08:27:17;10.10;82.30
69626;DHT22;56847;51.984;5.088;2023-03-14T08:29:44;9.90;81.40
69626;DHT22;56847;51.984;5.088;2023-03-14T08:32:11;9.90;81.80
69626;DHT22;56847;51.984;5.088;2023-03-14T08:34:38;9.90;82.00
69626;DHT22;56847;51.984;5.088;2023-03-14T08:37:05;9.90;81.80
69626;DHT22;56847;51.984;5.088;2023-03-14T08:39:51;10.00;81.70
69626;DHT22;56847;51.984;5.088;2023-03-14T08:42:18;10.00;82.00
69626;DHT22;56847;51.984;5.088;2023-03-14T08:44:45;10.00;81.90
69626;DHT22;56847;51.984;5.088;2023-03-14T08:47:12;10.00;81.20
69626;DHT22;56847;51.984;5.088;2023-03-14T08:49:40;10.00;81.60
69626;DHT22;56847;51.984;5.088;2023-03-14T08:52:07;9.90;80.00
69626;DHT22;56847;51.984;5.088;2023-03-14T08:54:34;9.80;80.60
69626;DHT22;56847;51.984;5.088;2023-03-14T08:57:00;9.70;81.20
69626;DHT22;56847;51.984;5.088;2023-03-14T08:59:30;9.80;80.70
69626;DHT22;56847;51.984;5.088;2023-03-14T09:01:57;9.80;80.20
69626;DHT22;56847;51.984;5.088;2023-03-14T09:04:24;9.90;80.40
69626;DHT22;56847;51.984;5.088;2023-03-14T09:06:51;9.90;80.00
69626;DHT22;56847;51.984;5.088;2023-03-14T09:09:18;10.00;78.80
69626;DHT22;56847;51.984;5.088;2023-03-14T09:11:45;10.00;78.60
69626;DHT22;56847;51.984;5.088;2023-03-14T09:14:12;10.00;78.70
69626;DHT22;56847;51.984;5.088;2023-03-14T09:16:38;10.00;78.90
69626;DHT22;56847;51.984;5.088;2023-03-14T09:19:05;10.00;78.30
69626;DHT22;56847;51.984;5.088;2023-03-14T09:21:32;10.00;78.20
69626;DHT22;56847;51.984;5.088;2023-03-14T09:23:59;10.10;78.90
69626;DHT22;56847;51.984;5.088;2023-03-14T09:26:26;10.20;77.80
69626;DHT22;56847;51.984;5.088;2023-03-14T09:28:53;10.20;77.20
69626;DHT22;56847;51.984;5.088;2023-03-14T09:31:23;10.20;77.90
69626;DHT22;56847;51.984;5.088;2023-03-14T09:33:50;10.20;77.40
69626;DHT22;56847;51.984;5.088;2023-03-14T09:36:17;10.20;77.00
69626;DHT22;56847;51.984;5.088;2023-03-14T09:38:43;10.20;75.50
69626;DHT22;56847;51.984;5.088;2023-03-14T09:41:21;10.20;75.50
69626;DHT22;56847;51.984;5.088;2023-03-14T09:44:08;10.30;75.40
69626;DHT22;56847;51.984;5.088;2023-03-14T09:46:38;10.30;75.10
69626;DHT22;56847;51.984;5.088;2023-03-14T09:49:30;10.30;74.80
69626;DHT22;56847;51.984;5.088;2023-03-14T09:52:00;10.30;74.90
69626;DHT22;56847;51.984;5.088;2023-03-14T09:54:36;10.30;73.70
69626;DHT22;56847;51.984;5.088;2023-03-14T09:57:06;10.30;74.10
69626;DHT22;56847;51.984;5.088;2023-03-14T09:59:37;10.30;73.80
69626;DHT22;56847;51.984;5.088;2023-03-14T10:02:24;10.30;74.70
69626;DHT22;56847;51.984;5.088;2023-03-14T10:04:53;10.40;75.10
69626;DHT22;56847;51.984;5.088;2023-03-14T10:07:33;10.40;73.00
69626;DHT22;56847;51.984;5.088;2023-03-14T10:10:00;10.40;73.30
69626;DHT22;56847;51.984;5.088;2023-03-14T10:12:35;10.50;73.60
69626;DHT22;56847;51.984;5.088;2023-03-14T10:15:12;10.40;72.50
69626;DHT22;56847;51.984;5.088;2023-03-14T10:17:43;10.30;72.40
69626;DHT22;56847;51.984;5.088;2023-03-14T10:23:02;10.00;73.60
69626;DHT22;56847;51.984;5.088;2023-03-14T10:25:35;9.80;74.60
69626;DHT22;56847;51.984;5.088;2023-03-14T10:28:04;9.60;74.80
69626;DHT22;56847;51.984;5.088;2023-03-14T10:30:45;9.40;75.30
69626;DHT22;56847;51.984;5.088;2023-03-14T10:33:32;9.10;75.30
69626;DHT22;56847;51.984;5.088;2023-03-14T10:36:04;9.00;76.00
69626;DHT22;56847;51.984;5.088;2023-03-14T10:38:35;9.00;77.00
69626;DHT22;56847;51.984;5.088;2023-03-14T10:41:04;9.20;76.90
69626;DHT22;56847;51.984;5.088;2023-03-14T10:43:41;9.20;76.30
69626;DHT22;56847;51.984;5.088;2023-03-14T10:46:16;9.30;76.00
69626;DHT22;56847;51.984;5.088;2023-03-14T10:49:16;9.50;76.60
69626;DHT22;56847;51.984;5.088;2023-03-14T10:51:49;9.70;76.00
69626;DHT22;56847;51.984;5.088;2023-03-14T10:54:21;9.90;75.10
69626;DHT22;56847;51.984;5.088;2023-03-14T10:56:59;10.00;74.60
69626;DHT22;56847;51.984;5.088;2023-03-14T10:59:32;9.90;73.50
69626;DHT22;56847;51.984;5.088;2023-03-14T11:02:15;9.80;74.00
69626;DHT22;56847;51.984;5.088;2023-03-14T11:07:29;9.50;72.50
69626;DHT22;56847;51.984;5.088;2023-03-14T11:15:17;9.50;75.50
69626;DHT22;56847;51.984;5.088;2023-03-14T11:17:57;9.70;75.40
69626;DHT22;56847;51.984;5.088;2023-03-14T11:20:38;9.80;72.90
69626;DHT22;56847;51.984;5.088;2023-03-14T11:28:48;9.70;73.10
69626;DHT22;56847;51.984;5.088;2023-03-14T11:31:31;9.80;73.70
69626;DHT22;56847;51.984;5.088;2023-03-14T11:34:07;10.10;73.30
69626;DHT22;56847;51.984;5.088;2023-03-14T11:36:39;10.40;72.80
69626;DHT22;56847;51.984;5.088;2023-03-14T11:39:13;10.70;72.10
69626;DHT22;56847;51.984;5.088;2023-03-14T11:41:44;10.90;67.50
69626;DHT22;56847;51.984;5.088;2023-03-14T11:44:20;10.90;66.90
69626;DHT22;56847;51.984;5.088;2023-03-14T11:47:02;11.00;66.30
69626;DHT22;56847;51.984;5.088;2023-03-14T11:52:50;11.10;66.20
69626;DHT22;56847;51.984;5.088;2023-03-14T11:55:34;11.10;61.70
69626;DHT22;56847;51.984;5.088;2023-03-14T11:58:17;11.10;61.90
69626;DHT22;56847;51.984;5.088;2023-03-14T12:00:48;11.10;62.60
69626;DHT22;56847;51.984;5.088;2023-03-14T12:03:45;11.10;60.50
69626;DHT22;56847;51.984;5.088;2023-03-14T12:06:49;11.00;59.30
69626;DHT22;56847;51.984;5.088;2023-03-14T12:09:19;11.10;59.20
69626;DHT22;56847;51.984;5.088;2023-03-14T12:11:56;11.30;55.50
69626;DHT22;56847;51.984;5.088;2023-03-14T12:14:34;11.30;54.80
69626;DHT22;56847;51.984;5.088;2023-03-14T12:17:07;11.30;54.80
69626;DHT22;56847;51.984;5.088;2023-03-14T12:19:44;11.30;53.70
69626;DHT22;56847;51.984;5.088;2023-03-14T12:22:27;11.20;54.60
69626;DHT22;56847;51.984;5.088;2023-03-14T12:25:04;11.40;54.90
69626;DHT22;56847;51.984;5.088;2023-03-14T12:28:02;11.50;53.70
69626;DHT22;56847;51.984;5.088;2023-03-14T12:35:57;11.50;54.50
69626;DHT22;56847;51.984;5.088;2023-03-14T12:43:42;11.30;53.40
69626;DHT22;56847;51.984;5.088;2023-03-14T12:49:03;11.20;54.00
69626;DHT22;56847;51.984;5.088;2023-03-14T12:51:43;11.10;52.80
69626;DHT22;56847;51.984;5.088;2023-03-14T12:54:42;11.10;54.90
69626;DHT22;56847;51.984;5.088;2023-03-14T12:57:15;11.20;53.90
69626;DHT22;56847;51.984;5.088;2023-03-14T13:00:00;11.10;52.20
69626;DHT22;56847;51.984;5.088;2023-03-14T13:02:41;11.10;51.30
69626;DHT22;56847;51.984;5.088;2023-03-14T13:05:23;11.10;52.00
69626;DHT22;56847;51.984;5.088;2023-03-14T13:10:26;11.10;52.90
69626;DHT22;56847;51.984;5.088;2023-03-14T13:15:45;11.10;51.10
69626;DHT22;56847;51.984;5.088;2023-03-14T13:18:26;11.00;50.70
69626;DHT22;56847;51.984;5.088;2023-03-14T13:20:58;10.90;51.20
69626;DHT22;56847;51.984;5.088;2023-03-14T13:23:29;10.90;52.00
69626;DHT22;56847;51.984;5.088;2023-03-14T13:25:57;10.80;52.60
69626;DHT22;56847;51.984;5.088;2023-03-14T13:28:26;10.90;52.40
69626;DHT22;56847;51.984;5.088;2023-03-14T13:30:57;10.90;49.90
69626;DHT22;56847;51.984;5.088;2023-03-14T13:33:24;10.90;51.10
69626;DHT22;56847;51.984;5.088;2023-03-14T13:36:05;10.90;51.30
69626;DHT22;56847;51.984;5.088;2023-03-14T13:38:35;11.00;50.50
69626;DHT22;56847;51.984;5.088;2023-03-14T13:41:06;11.00;49.30
69626;DHT22;56847;51.984;5.088;2023-03-14T13:43:40;11.00;49.10
69626;DHT22;56847;51.984;5.088;2023-03-14T13:46:16;10.90;50.30
69626;DHT22;56847;51.984;5.088;2023-03-14T13:51:44;11.00;49.80
69626;DHT22;56847;51.984;5.088;2023-03-14T13:54:15;11.20;49.50
69626;DHT22;56847;51.984;5.088;2023-03-14T13:56:43;11.20;48.10
69626;DHT22;56847;51.984;5.088;2023-03-14T13:59:33;11.30;48.50
69626;DHT22;56847;51.984;5.088;2023-03-14T14:02:13;11.50;50.60
69626;DHT22;56847;51.984;5.088;2023-03-14T14:04:46;11.50;48.50
69626;DHT22;56847;51.984;5.088;2023-03-14T14:07:16;11.50;49.60
69626;DHT22;56847;51.984;5.088;2023-03-14T14:09:49;11.40;49.10
69626;DHT22;56847;51.984;5.088;2023-03-14T14:12:22;11.40;49.60
69626;DHT22;56847;51.984;5.088;2023-03-14T14:15:13;11.30;48.40
69626;DHT22;56847;51.984;5.088;2023-03-14T14:17:44;11.30;47.80
69626;DHT22;56847;51.984;5.088;2023-03-14T14:20:20;11.30;47.00
69626;DHT22;56847;51.984;5.088;2023-03-14T14:22:49;11.20;46.50
69626;DHT22;56847;51.984;5.088;2023-03-14T14:25:18;11.10;46.80
69626;DHT22;56847;51.984;5.088;2023-03-14T14:27:50;11.10;47.80
69626;DHT22;56847;51.984;5.088;2023-03-14T14:32:46;11.00;47.60
69626;DHT22;56847;51.984;5.088;2023-03-14T14:35:33;10.90;47.80
69626;DHT22;56847;51.984;5.088;2023-03-14T14:38:01;10.90;48.30
69626;DHT22;56847;51.984;5.088;2023-03-14T14:40:30;10.80;47.90
69626;DHT22;56847;51.984;5.088;2023-03-14T14:43:04;10.80;48.50
69626;DHT22;56847;51.984;5.088;2023-03-14T14:45:34;10.70;48.20
69626;DHT22;56847;51.984;5.088;2023-03-14T14:53:03;10.60;48.10
69626;DHT22;56847;51.984;5.088;2023-03-14T14:55:40;10.60;49.70
69626;DHT22;56847;51.984;5.088;2023-03-14T15:00:59;10.60;50.40
69626;DHT22;56847;51.984;5.088;2023-03-14T15:03:31;10.60;49.10
69626;DHT22;56847;51.984;5.088;2023-03-14T15:05:58;10.50;48.50
69626;DHT22;56847;51.984;5.088;2023-03-14T15:08:26;10.40;48.20
69626;DHT22;56847;51.984;5.088;2023-03-14T15:10:55;10.30;47.90
69626;DHT22;56847;51.984;5.088;2023-03-14T15:13:22;10.40;48.70
69626;DHT22;56847;51.984;5.088;2023-03-14T15:15:50;10.40;47.80
69626;DHT22;56847;51.984;5.088;2023-03-14T15:18:25;10.40;46.30
69626;DHT22;56847;51.984;5.088;2023-03-14T15:20:57;10.30;45.80
69626;DHT22;56847;51.984;5.088;2023-03-14T15:23:28;10.30;46.50
69626;DHT22;56847;51.984;5.088;2023-03-14T15:25:55;10.30;47.00
69626;DHT22;56847;51.984;5.088;2023-03-14T15:28:25;10.30;47.00
69626;DHT22;56847;51.984;5.088;2023-03-14T15:30:54;10.30;46.70
69626;DHT22;56847;51.984;5.088;2023-03-14T15:33:22;10.20;46.80
69626;DHT22;56847;51.984;5.088;2023-03-14T15:35:50;10.10;47.20
69626;DHT22;56847;51.984;5.088;2023-03-14T15:38:19;10.10;47.70
69626;DHT22;56847;51.984;5.088;2023-03-14T15:40:48;10.20;47.90
69626;DHT22;56847;51.984;5.088;2023-03-14T15:43:19;10.20;48.20
69626;DHT22;56847;51.984;5.088;2023-03-14T15:45:46;10.20;48.60
69626;DHT22;56847;51.984;5.088;2023-03-14T15:48:20;10.20;49.20
69626;DHT22;56847;51.984;5.088;2023-03-14T15:50:48;10.10;49.00
69626;DHT22;56847;51.984;5.088;2023-03-14T15:53:15;10.10;48.80
69626;DHT22;56847;51.984;5.088;2023-03-14T15:55:52;10.10;48.20
69626;DHT22;56847;51.984;5.088;2023-03-14T15:58:20;10.00;48.00
69626;DHT22;56847;51.984;5.088;2023-03-14T16:00:50;10.00;48.40
69626;DHT22;56847;51.984;5.088;2023-03-14T16:03:18;10.00;48.40
69626;DHT22;56847;51.984;5.088;2023-03-14T16:05:45;9.90;48.80
69626;DHT22;56847;51.984;5.088;2023-03-14T16:08:17;9.90;49.60
69626;DHT22;56847;51.984;5.088;2023-03-14T16:10:45;9.90;49.70
69626;DHT22;56847;51.984;5.088;2023-03-14T16:13:13;9.90;50.20
69626;DHT22;56847;51.984;5.088;2023-03-14T16:15:40;9.90;50.90
69626;DHT22;56847;51.984;5.088;2023-03-14T16:18:07;9.90;50.90
69626;DHT22;56847;51.984;5.088;2023-03-14T16:21:01;9.90;51.30
69626;DHT22;56847;51.984;5.088;2023-03-14T16:23:29;10.00;51.80
69626;DHT22;56847;51.984;5.088;2023-03-14T16:25:57;10.00;51.40
69626;DHT22;56847;51.984;5.088;2023-03-14T16:28:25;10.00;49.80
69626;DHT22;56847;51.984;5.088;2023-03-14T16:30:52;9.90;49.60
69626;DHT22;56847;51.984;5.088;2023-03-14T16:33:25;9.90;48.30
69626;DHT22;56847;51.984;5.088;2023-03-14T16:36:00;9.80;48.00
69626;DHT22;56847;51.984;5.088;2023-03-14T16:38:32;9.80;48.30
69626;DHT22;56847;51.984;5.088;2023-03-14T16:41:02;9.70;49.10
69626;DHT22;56847;51.984;5.088;2023-03-14T16:43:30;9.60;49.40
69626;DHT22;56847;51.984;5.088;2023-03-14T16:45:58;9.50;49.50
69626;DHT22;56847;51.984;5.088;2023-03-14T16:48:26;9.50;49.20
69626;DHT22;56847;51.984;5.088;2023-03-14T16:50:54;9.40;49.30
69626;DHT22;56847;51.984;5.088;2023-03-14T17:06:33;9.60;49.20
69626;DHT22;56847;51.984;5.088;2023-03-14T17:09:00;9.70;50.10
69626;DHT22;56847;51.984;5.088;2023-03-14T17:11:32;9.70;50.30